Helena — SCGL — position and weather

sailwx.info

Track history (hours):
 
Tides and Currents Weather Stations Pressure Air Temp Water Temp Dewpoint Dewpoint Depression Visibility Wind Speed Wind Dir Waves Ship Positions

Helena

Last reported at 2015-May-26 10:06 UTC. Time now 2015-May-30 14:34 UTC.
Position N 57°35' E 017°56'.

Length 169 m; draft 6.3 m.

Type: Cargo ship. MMSI: 265145000.

Date/timePositionNaut miles runAvg speedWind from/ knotsBaromVisibWave heightAir tempDewpointWater temp
2015-May-26 10:06N 57°35' E 017°56'1515.2
2015-May-26 09:06N 57°21' E 017°43'915.3
2015-May-26 08:32N 57°13' E 017°38'10614.5
2015-May-26 01:13N 55°46' E 015°49'1015.5
2015-May-26 00:33N 55°41' E 015°33'1615.7
2015-May-25 23:33N 55°33' E 015°08'1615.7
2015-May-25 22:33N 55°26' E 014°44'1515.3
2015-May-25 21:33N 55°14' E 014°26'1615.7
2015-May-25 20:34N 55°02' E 014°09'6215.6
2015-May-25 16:34N 54°36' E 012°31'1515.0
2015-May-25 15:32N 54°26' E 012°12'1515.2
2015-May-25 14:33N 54°20' E 011°49'1615.6
2015-May-25 13:34N 54°11' E 011°26'29 2.6
2015-May-25 02:32N 53°54' E 010°47'0 0.0
2015-May-25 01:32N 53°54' E 010°47'0 0.0
2015-May-25 00:32N 53°54' E 010°47'0 0.0
2015-May-24 23:32N 53°54' E 010°47'0 0.0
2015-May-24 22:32N 53°54' E 010°47'0 0.0
2015-May-24 20:32N 53°54' E 010°47'0 0.0
2015-May-24 19:26N 53°54' E 010°47'19 1.3
2015-May-24 05:05N 54°07' E 011°09'815.1
2015-May-24 04:33N 54°12' E 011°20'1515.4
2015-May-24 03:34N 54°20' E 011°43'1514.8
2015-May-24 02:33N 54°26' E 012°06'7314.5
2015-May-23 21:31N 55°02' E 013°57'1515.2
2015-May-23 20:32N 55°12' E 014°16'1515.8
2015-May-23 19:33N 55°24' E 014°33'1615.7
2015-May-23 18:33N 55°33' E 014°56'1615.5
2015-May-23 17:31N 55°41' E 015°21'9713.9
2015-May-23 10:29N 56°58' E 017°09'1415.5
2015-May-23 09:33N 57°12' E 017°17'1515.5
2015-May-23 08:33N 57°25' E 017°32'1615.2
2015-May-23 07:32N 57°39' E 017°46'  
2015-May-19 11:23N 57°12' E 017°37'10515.4
2015-May-19 04:32N 55°46' E 015°48'1515.5
2015-May-19 03:32N 55°39' E 015°24'1515.8
2015-May-19 02:33N 55°31' E 015°01'1616.1
2015-May-19 01:33N 55°22' E 014°37'1616.4
2015-May-19 00:33N 55°09' E 014°18'1615.5
2015-May-18 23:33N 54°59' E 013°58'6115.1
2015-May-18 19:32N 54°34' E 012°22'1515.3
2015-May-18 18:33N 54°24' E 012°03'1616.1
2015-May-18 17:33N 54°16' E 011°40'1615.6
2015-May-18 16:33N 54°08' E 011°16'4 0.1
2015-May-17 06:12N 54°07' E 011°10'913.2
2015-May-17 05:33N 54°12' E 011°22'1413.6
2015-May-17 04:33N 54°19' E 011°42'1313.4
2015-May-17 03:33N 54°26' E 012°01'8013.0
2015-May-16 21:24N 55°04' E 014°03'1313.6
2015-May-16 20:28N 55°14' E 014°18'1314.0
2015-May-16 19:33N 55°23' E 014°32'1413.9
2015-May-16 18:33N 55°31' E 014°52'1414.0
2015-May-16 17:33N 55°39' E 015°13'1714.2
2015-May-16 16:23N 55°47' E 015°39'7813.3
2015-May-16 10:31N 56°49' E 017°04'  
Track history (hours):
 
Tides and Currents Weather Stations Pressure Air Temp Water Temp Dewpoint Dewpoint Depression Visibility Wind Speed Wind Dir Waves Ship Positions

Helena

Last reported at 2015-May-26 10:06 UTC. Time now 2015-May-30 14:34 UTC.
Position N 57°35' E 017°56'.

Length 169 m; draft 6.3 m.

Type: Cargo ship. MMSI: 265145000.

Date/timePositionNaut miles runAvg speedWind from/ knotsBaromVisibWave heightAir tempDewpointWater temp
2015-May-26 10:06N 57°35' E 017°56'1515.2
2015-May-26 09:06N 57°21' E 017°43'915.3
2015-May-26 08:32N 57°13' E 017°38'10614.5
2015-May-26 01:13N 55°46' E 015°49'1015.5
2015-May-26 00:33N 55°41' E 015°33'1615.7
2015-May-25 23:33N 55°33' E 015°08'1615.7
2015-May-25 22:33N 55°26' E 014°44'1515.3
2015-May-25 21:33N 55°14' E 014°26'1615.7
2015-May-25 20:34N 55°02' E 014°09'6215.6
2015-May-25 16:34N 54°36' E 012°31'1515.0
2015-May-25 15:32N 54°26' E 012°12'1515.2
2015-May-25 14:33N 54°20' E 011°49'1615.6
2015-May-25 13:34N 54°11' E 011°26'29 2.6
2015-May-25 02:32N 53°54' E 010°47'0 0.0
2015-May-25 01:32N 53°54' E 010°47'0 0.0
2015-May-25 00:32N 53°54' E 010°47'0 0.0
2015-May-24 23:32N 53°54' E 010°47'0 0.0
2015-May-24 22:32N 53°54' E 010°47'0 0.0
2015-May-24 20:32N 53°54' E 010°47'0 0.0
2015-May-24 19:26N 53°54' E 010°47'19 1.3
2015-May-24 05:05N 54°07' E 011°09'815.1
2015-May-24 04:33N 54°12' E 011°20'1515.4
2015-May-24 03:34N 54°20' E 011°43'1514.8
2015-May-24 02:33N 54°26' E 012°06'7314.5
2015-May-23 21:31N 55°02' E 013°57'1515.2
2015-May-23 20:32N 55°12' E 014°16'1515.8
2015-May-23 19:33N 55°24' E 014°33'1615.7
2015-May-23 18:33N 55°33' E 014°56'1615.5
2015-May-23 17:31N 55°41' E 015°21'9713.9
2015-May-23 10:29N 56°58' E 017°09'1415.5
2015-May-23 09:33N 57°12' E 017°17'1515.5
2015-May-23 08:33N 57°25' E 017°32'1615.2
2015-May-23 07:32N 57°39' E 017°46'  
2015-May-19 11:23N 57°12' E 017°37'10515.4
2015-May-19 04:32N 55°46' E 015°48'1515.5
2015-May-19 03:32N 55°39' E 015°24'1515.8
2015-May-19 02:33N 55°31' E 015°01'1616.1
2015-May-19 01:33N 55°22' E 014°37'1616.4
2015-May-19 00:33N 55°09' E 014°18'1615.5
2015-May-18 23:33N 54°59' E 013°58'6115.1
2015-May-18 19:32N 54°34' E 012°22'1515.3
2015-May-18 18:33N 54°24' E 012°03'1616.1
2015-May-18 17:33N 54°16' E 011°40'1615.6
2015-May-18 16:33N 54°08' E 011°16'4 0.1
2015-May-17 06:12N 54°07' E 011°10'913.2
2015-May-17 05:33N 54°12' E 011°22'1413.6
2015-May-17 04:33N 54°19' E 011°42'1313.4
2015-May-17 03:33N 54°26' E 012°01'8013.0
2015-May-16 21:24N 55°04' E 014°03'1313.6
2015-May-16 20:28N 55°14' E 014°18'1314.0
2015-May-16 19:33N 55°23' E 014°32'1413.9
2015-May-16 18:33N 55°31' E 014°52'1414.0
2015-May-16 17:33N 55°39' E 015°13'1714.2
2015-May-16 16:23N 55°47' E 015°39'7813.3
2015-May-16 10:31N 56°49' E 017°04'  

Dump ship's entire track history